Time;durP1;ratioP1;P1;durP2;ratioP2;P2;SDS_P1;SDS_P2;PMS_P1;PMS_P2;Temp;Humidity;BMP_temperature;BMP_pressure;BME280_temperature;BME280_humidity;BME280_pressure;Samples;Min_cycle;Max_cycle;Signal;HPM_P1;HPM_P2
2023/12/19 00:00:13;;;;;;;15.15;10.32;;;30.20;99.90;;;;;;5026741;28;20048;-68
2023/12/19 00:02:40;;;;;;;12.82;10.35;;;30.20;99.90;;;;;;5026108;28;20435;-67
2023/12/19 00:05:09;;;;;;;23.00;12.07;;;30.40;99.90;;;;;;5027602;28;20045;-67
2023/12/19 00:07:37;;;;;;;18.75;11.52;;;30.40;99.90;;;;;;5025641;28;20036;-67
2023/12/19 00:10:04;;;;;;;17.05;11.55;;;30.60;99.90;;;;;;5025986;28;20546;-67
2023/12/19 00:12:31;;;;;;;21.05;11.73;;;30.60;99.90;;;;;;5026168;28;20026;-69
2023/12/19 00:14:58;;;;;;;23.15;15.48;;;30.70;99.90;;;;;;5026614;28;20109;-67
2023/12/19 00:17:25;;;;;;;18.27;13.27;;;30.70;99.90;;;;;;5026389;28;20075;-68
2023/12/19 00:19:55;;;;;;;19.52;13.95;;;30.80;99.90;;;;;;5024982;28;20018;-67
2023/12/19 00:22:23;;;;;;;22.27;14.23;;;31.00;99.90;;;;;;5025499;28;20029;-68
2023/12/19 00:24:50;;;;;;;22.23;14.05;;;31.00;99.90;;;;;;5026975;28;20025;-70
2023/12/19 00:27:17;;;;;;;21.20;14.73;;;31.30;99.90;;;;;;4330886;28;9999936;-68
2023/12/19 00:29:44;;;;;;;26.13;18.55;;;31.60;99.90;;;;;;5023242;28;20109;-71
2023/12/19 00:32:11;;;;;;;22.13;16.23;;;31.90;99.90;;;;;;5022621;28;20104;-67
2023/12/19 00:34:38;;;;;;;23.30;17.33;;;32.10;99.90;;;;;;5021990;28;20072;-69
2023/12/19 00:37:06;;;;;;;26.83;18.75;;;32.20;99.90;;;;;;5021611;28;20115;-73
2023/12/19 00:39:33;;;;;;;29.00;19.48;;;32.40;99.90;;;;;;5022249;28;20021;-69
2023/12/19 00:42:00;;;;;;;28.42;21.10;;;32.40;99.90;;;;;;5023711;28;20057;-71
2023/12/19 00:44:27;;;;;;;26.73;20.90;;;32.40;99.90;;;;;;5020704;28;20071;-68
2023/12/19 00:46:54;;;;;;;35.15;23.70;;;32.40;99.90;;;;;;5020212;28;20091;-67
2023/12/19 00:49:21;;;;;;;39.50;31.73;;;32.50;99.90;;;;;;5021904;28;20156;-71
2023/12/19 00:51:48;;;;;;;31.05;25.75;;;32.70;99.90;;;;;;5020627;28;20424;-67
2023/12/19 00:54:15;;;;;;;34.85;27.45;;;32.60;99.90;;;;;;5020964;28;20041;-68
2023/12/19 00:56:42;;;;;;;32.03;26.40;;;32.80;99.90;;;;;;5021724;28;20037;-69
2023/12/19 00:59:10;;;;;;;26.98;23.67;;;32.80;99.90;;;;;;5020807;28;20022;-69
2023/12/19 01:01:37;;;;;;;28.92;23.90;;;32.80;99.90;;;;;;5021406;28;20066;-68
2023/12/19 01:04:04;;;;;;;26.20;23.48;;;32.60;99.90;;;;;;5021522;28;20049;-68
2023/12/19 01:06:31;;;;;;;28.20;23.55;;;32.50;99.90;;;;;;5023317;28;20037;-68
2023/12/19 01:08:58;;;;;;;27.10;22.80;;;32.60;99.90;;;;;;5022564;28;21245;-72
2023/12/19 01:11:26;;;;;;;27.73;24.10;;;32.80;99.90;;;;;;5022054;28;20087;-71
2023/12/19 01:13:53;;;;;;;26.77;23.73;;;32.90;99.90;;;;;;5022184;28;20336;-71
2023/12/19 01:16:20;;;;;;;26.77;23.80;;;33.10;99.90;;;;;;5021928;28;20033;-72
2023/12/19 01:18:47;;;;;;;26.73;23.83;;;33.20;99.90;;;;;;5021388;28;20022;-71
2023/12/19 01:21:14;;;;;;;30.10;26.92;;;33.40;99.90;;;;;;5021774;28;20047;-71
2023/12/19 01:23:41;;;;;;;30.20;27.10;;;33.30;99.90;;;;;;5020716;28;20025;-68
2023/12/19 01:26:09;;;;;;;30.55;26.83;;;33.00;99.90;;;;;;5020931;28;20176;-73
2023/12/19 01:28:39;;;;;;;35.45;31.85;;;33.00;99.90;;;;;;5021492;28;20021;-69
2023/12/19 01:31:06;;;;;;;33.17;30.00;;;33.00;99.90;;;;;;5021234;28;20037;-72
2023/12/19 01:33:34;;;;;;;32.88;29.67;;;33.00;99.90;;;;;;5019439;28;20571;-72
2023/12/19 01:36:02;;;;;;;36.05;32.38;;;33.00;99.90;;;;;;5020941;28;20498;-74
2023/12/19 01:38:29;;;;;;;37.17;33.60;;;32.80;99.90;;;;;;5020809;28;21722;-71
2023/12/19 01:40:56;;;;;;;38.85;35.42;;;33.00;99.90;;;;;;5020901;28;20033;-74
2023/12/19 01:43:23;;;;;;;38.10;34.08;;;33.20;99.90;;;;;;5023253;28;20026;-69
2023/12/19 01:45:51;;;;;;;38.25;34.53;;;33.10;99.90;;;;;;5021244;28;20111;-70
2023/12/19 01:48:19;;;;;;;39.25;35.85;;;33.50;99.90;;;;;;5020225;28;20026;-70
2023/12/19 01:50:48;;;;;;;43.90;39.83;;;33.70;99.90;;;;;;5019450;28;20032;-69
2023/12/19 01:53:16;;;;;;;46.08;41.70;;;33.80;99.90;;;;;;5020280;28;20065;-68
2023/12/19 01:55:44;;;;;;;47.63;43.45;;;34.00;99.90;;;;;;5021443;28;20117;-74
2023/12/19 01:58:11;;;;;;;50.30;45.83;;;34.20;99.90;;;;;;5021358;28;20083;-71
2023/12/19 02:00:38;;;;;;;52.15;47.55;;;34.20;99.90;;;;;;5018907;28;20119;-71
2023/12/19 02:03:06;;;;;;;54.85;50.20;;;34.40;99.90;;;;;;5020240;28;20590;-67
2023/12/19 02:05:38;;;;;;;55.45;50.55;;;34.50;99.20;;;;;;5021703;28;20034;-72
2023/12/19 02:08:05;;;;;;;59.28;54.25;;;34.40;99.40;;;;;;5020934;28;20373;-69
2023/12/19 02:10:33;;;;;;;59.53;54.70;;;34.70;99.10;;;;;;5021209;28;20029;-68
2023/12/19 02:13:00;;;;;;;60.13;54.92;;;34.60;98.70;;;;;;5020901;28;20029;-71
2023/12/19 02:15:28;;;;;;;60.03;55.13;;;35.00;98.70;;;;;;5034984;28;20357;-73
2023/12/19 02:17:55;;;;;;;62.20;56.78;;;35.50;98.30;;;;;;5020534;28;20029;-67
2023/12/19 02:20:22;;;;;;;63.53;58.17;;;36.00;98.00;;;;;;5020318;28;20479;-66
2023/12/19 02:22:53;;;;;;;62.88;57.47;;;36.40;97.60;;;;;;5020913;28;20264;-74
2023/12/19 02:25:20;;;;;;;63.53;58.50;;;36.60;97.00;;;;;;5020647;28;20026;-70
2023/12/19 02:27:47;;;;;;;60.35;55.50;;;36.70;96.70;;;;;;5019920;28;20275;-73
2023/12/19 02:30:15;;;;;;;60.30;55.40;;;36.60;96.60;;;;;;5019470;28;20033;-69
2023/12/19 02:32:45;;;;;;;59.38;54.60;;;36.30;96.50;;;;;;5019832;28;20488;-68
2023/12/19 02:35:12;;;;;;;59.65;54.63;;;35.90;96.50;;;;;;5019899;28;20031;-73
2023/12/19 02:37:41;;;;;;;57.95;53.00;;;35.90;96.40;;;;;;5021349;28;20047;-71
2023/12/19 02:40:09;;;;;;;60.75;55.65;;;35.90;95.90;;;;;;5020059;28;20435;-72
2023/12/19 02:42:41;;;;;;;57.05;52.45;;;35.70;96.20;;;;;;5020247;28;20377;-68
2023/12/19 02:45:11;;;;;;;54.15;49.75;;;35.40;96.20;;;;;;5020358;28;20026;-70
2023/12/19 02:47:39;;;;;;;53.92;49.47;;;35.30;96.50;;;;;;5020362;28;20064;-73
2023/12/19 02:50:07;;;;;;;52.22;48.20;;;35.00;96.60;;;;;;5021478;28;20021;-73
2023/12/19 02:52:34;;;;;;;50.67;46.63;;;34.90;97.10;;;;;;5020720;28;20036;-68
2023/12/19 02:55:01;;;;;;;50.80;46.70;;;34.80;96.80;;;;;;5021602;28;20029;-70
2023/12/19 02:57:28;;;;;;;49.08;44.78;;;34.60;97.30;;;;;;5021340;28;20492;-68
2023/12/19 02:59:55;;;;;;;53.22;48.92;;;34.60;97.30;;;;;;5018911;28;20034;-68
2023/12/19 03:02:22;;;;;;;49.90;45.60;;;34.60;97.00;;;;;;5018495;28;20037;-73
2023/12/19 03:04:50;;;;;;;50.72;46.53;;;34.60;97.00;;;;;;5018781;28;20373;-69
2023/12/19 03:07:17;;;;;;;49.78;45.55;;;34.70;96.60;;;;;;5019897;28;20512;-69
2023/12/19 03:09:44;;;;;;;52.28;48.03;;;34.80;96.90;;;;;;5019209;28;20025;-72
2023/12/19 03:12:11;;;;;;;50.35;45.88;;;34.60;97.00;;;;;;5019641;28;20034;-72
2023/12/19 03:14:38;;;;;;;47.25;43.05;;;34.50;97.20;;;;;;5021223;28;20712;-67
2023/12/19 03:17:05;;;;;;;45.78;41.92;;;34.80;97.10;;;;;;5020495;28;20029;-69
2023/12/19 03:19:33;;;;;;;44.83;41.00;;;34.60;97.00;;;;;;5020081;28;20025;-69
2023/12/19 03:22:00;;;;;;;44.05;40.42;;;34.50;96.60;;;;;;5019680;28;20488;-71
2023/12/19 03:24:28;;;;;;;44.70;40.90;;;34.40;97.00;;;;;;5019400;28;20033;-71
2023/12/19 03:26:55;;;;;;;41.95;38.25;;;34.40;96.80;;;;;;5019023;28;20029;-70
2023/12/19 03:29:23;;;;;;;42.15;38.88;;;34.50;97.10;;;;;;5017938;28;20029;-72
2023/12/19 03:31:50;;;;;;;41.35;37.65;;;34.80;97.10;;;;;;5020348;28;20551;-74
2023/12/19 03:34:17;;;;;;;39.45;36.10;;;34.90;96.30;;;;;;5023451;28;20084;-73
2023/12/19 03:36:44;;;;;;;36.33;33.30;;;35.10;96.00;;;;;;5023711;28;20026;-78
2023/12/19 03:39:12;;;;;;;34.42;31.52;;;35.20;95.00;;;;;;5023388;28;20017;-76
2023/12/19 03:41:39;;;;;;;32.95;30.20;;;35.30;94.40;;;;;;5035300;28;20035;-71
2023/12/19 03:44:06;;;;;;;27.02;24.73;;;35.30;94.50;;;;;;5022278;28;20494;-75
2023/12/19 03:46:33;;;;;;;24.27;22.23;;;35.10;93.50;;;;;;5022471;28;20463;-71
2023/12/19 03:49:00;;;;;;;22.83;21.02;;;35.20;93.00;;;;;;5023532;28;20079;-73
2023/12/19 03:51:27;;;;;;;20.13;18.33;;;35.40;92.70;;;;;;5020634;28;20562;-71
2023/12/19 03:53:54;;;;;;;18.50;17.00;;;35.60;92.20;;;;;;5023606;28;20500;-74
2023/12/19 03:56:21;;;;;;;17.95;16.55;;;35.90;91.80;;;;;;5022547;28;20378;-74
2023/12/19 03:58:49;;;;;;;16.58;15.15;;;36.10;91.70;;;;;;5022011;28;20034;-75
2023/12/19 04:01:18;;;;;;;14.48;13.15;;;36.00;91.30;;;;;;5019580;28;20862;-73
2023/12/19 04:03:46;;;;;;;12.10;11.10;;;36.10;90.40;;;;;;5021692;28;20033;-73
2023/12/19 04:06:13;;;;;;;11.90;10.73;;;35.90;90.60;;;;;;5020949;28;20870;-73
2023/12/19 04:08:40;;;;;;;10.30;9.50;;;35.90;90.60;;;;;;5022309;28;20072;-73
2023/12/19 04:11:07;;;;;;;11.07;10.05;;;35.80;90.20;;;;;;5021956;28;20396;-74
2023/12/19 04:13:37;;;;;;;11.05;9.63;;;35.70;90.10;;;;;;5022641;28;20112;-74
2023/12/19 04:16:04;;;;;;;10.63;9.10;;;35.60;89.90;;;;;;5021033;28;20035;-73
2023/12/19 04:18:32;;;;;;;9.80;8.90;;;35.60;90.00;;;;;;5021340;28;20738;-73
2023/12/19 04:20:59;;;;;;;10.45;9.65;;;35.80;90.00;;;;;;5022176;28;20021;-73
2023/12/19 04:23:26;;;;;;;10.27;9.48;;;35.80;89.80;;;;;;5021314;28;20029;-69
2023/12/19 04:25:53;;;;;;;12.65;11.55;;;36.00;90.30;;;;;;5021383;28;20025;-74
2023/12/19 04:28:20;;;;;;;8.93;8.13;;;36.00;90.00;;;;;;5020871;28;20033;-73
2023/12/19 04:30:47;;;;;;;8.32;7.15;;;36.10;90.00;;;;;;5023559;28;20118;-73
2023/12/19 04:33:14;;;;;;;7.28;6.57;;;36.00;89.60;;;;;;5025699;28;20090;-76
2023/12/19 04:35:41;;;;;;;9.32;6.75;;;36.00;89.50;;;;;;5023685;28;20493;-73
2023/12/19 04:38:08;;;;;;;7.75;6.95;;;36.00;90.00;;;;;;5022430;28;20349;-74
2023/12/19 04:40:35;;;;;;;7.10;6.40;;;36.40;90.00;;;;;;5022996;28;20060;-75
2023/12/19 04:43:03;;;;;;;6.28;5.72;;;36.30;88.70;;;;;;5026159;28;20053;-73
2023/12/19 04:45:30;;;;;;;6.78;5.22;;;36.30;89.00;;;;;;5026102;28;20029;-72
2023/12/19 04:47:57;;;;;;;5.43;4.95;;;36.30;88.70;;;;;;5025525;28;20503;-74
2023/12/19 04:50:24;;;;;;;5.60;5.10;;;36.20;88.90;;;;;;5027987;28;20025;-73
2023/12/19 04:52:51;;;;;;;6.22;4.80;;;36.40;88.70;;;;;;5024870;28;20029;-76
2023/12/19 04:55:18;;;;;;;5.40;4.90;;;36.60;88.40;;;;;;5026776;28;20446;-74
2023/12/19 04:57:45;;;;;;;4.32;4.03;;;36.80;88.00;;;;;;5024244;28;20021;-72
2023/12/19 05:00:13;;;;;;;7.30;4.53;;;37.00;87.60;;;;;;5025915;28;20032;-75
2023/12/19 05:02:41;;;;;;;6.80;4.63;;;37.50;87.30;;;;;;5023514;28;20084;-73
2023/12/19 05:05:09;;;;;;;6.22;4.25;;;37.70;85.90;;;;;;5020160;28;20448;-74
2023/12/19 05:07:36;;;;;;;5.78;4.32;;;37.90;86.30;;;;;;5016512;28;20025;-73
2023/12/19 05:10:03;;;;;;;4.82;4.38;;;38.20;85.60;;;;;;5015827;28;20511;-73
2023/12/19 05:12:30;;;;;;;4.47;4.07;;;38.30;85.70;;;;;;5014986;28;20026;-77
2023/12/19 05:14:57;;;;;;;5.53;4.00;;;38.60;85.50;;;;;;5016081;28;20112;-75
2023/12/19 05:17:25;;;;;;;5.18;3.38;;;38.60;84.40;;;;;;5016675;28;20576;-73
2023/12/19 05:19:52;;;;;;;4.03;3.42;;;38.50;83.90;;;;;;5016238;28;20013;-73
2023/12/19 05:22:19;;;;;;;4.05;3.20;;;38.70;83.80;;;;;;5024411;28;20032;-72
2023/12/19 05:24:46;;;;;;;3.88;3.47;;;38.80;83.70;;;;;;5018635;28;20021;-75
2023/12/19 05:27:13;;;;;;;4.22;3.40;;;38.90;83.70;;;;;;5015017;28;20452;-73
2023/12/19 05:29:41;;;;;;;3.75;3.33;;;39.10;83.10;;;;;;5019562;28;20101;-73
2023/12/19 05:32:08;;;;;;;3.33;3.03;;;39.00;83.00;;;;;;5013113;28;20484;-73
2023/12/19 05:34:35;;;;;;;3.95;3.35;;;38.90;82.70;;;;;;5016302;28;20061;-73
2023/12/19 05:37:03;;;;;;;4.57;3.90;;;38.90;82.20;;;;;;5019520;28;20083;-77
2023/12/19 05:39:31;;;;;;;5.60;5.03;;;38.90;82.90;;;;;;5016024;28;20079;-75
2023/12/19 05:41:58;;;;;;;3.40;3.10;;;38.80;82.60;;;;;;5018322;28;20037;-74
2023/12/19 05:44:25;;;;;;;3.90;2.75;;;38.50;82.30;;;;;;5016038;28;20040;-76
2023/12/19 05:46:52;;;;;;;4.55;3.42;;;38.50;82.90;;;;;;5016976;28;20037;-72
2023/12/19 05:49:20;;;;;;;5.70;5.20;;;38.30;83.10;;;;;;5014991;28;20048;-75
2023/12/19 05:51:47;;;;;;;7.20;6.50;;;38.40;83.70;;;;;;5017449;28;20104;-74
2023/12/19 05:54:14;;;;;;;6.50;5.38;;;38.30;83.50;;;;;;5015562;28;20026;-72
2023/12/19 05:56:41;;;;;;;6.32;5.50;;;38.30;83.40;;;;;;5013948;28;20068;-73
2023/12/19 05:59:08;;;;;;;6.57;5.93;;;38.30;83.90;;;;;;5015117;28;20029;-73
2023/12/19 06:01:42;;;;;;;6.25;5.65;;;38.10;83.40;;;;;;5013467;28;20451;-73
2023/12/19 06:04:10;;;;;;;6.45;4.93;;;37.80;84.00;;;;;;5017632;28;20029;-73
2023/12/19 06:06:42;;;;;;;5.05;4.65;;;37.70;83.70;;;;;;5015488;28;20164;-73
2023/12/19 06:09:13;;;;;;;10.98;9.95;;;37.70;84.20;;;;;;5015000;28;20033;-75
2023/12/19 06:11:40;;;;;;;12.57;11.60;;;37.20;85.30;;;;;;5018778;28;20459;-74
2023/12/19 06:14:11;;;;;;;12.85;11.77;;;36.90;86.30;;;;;;5017432;28;20082;-74
2023/12/19 06:16:41;;;;;;;25.13;22.85;;;36.90;87.30;;;;;;5017079;28;20049;-77
2023/12/19 06:19:08;;;;;;;29.67;27.17;;;36.90;90.00;;;;;;5017900;28;20469;-75
2023/12/19 06:21:35;;;;;;;31.23;28.33;;;36.60;90.40;;;;;;5015071;28;20033;-75
2023/12/19 06:24:03;;;;;;;29.48;26.98;;;36.20;90.70;;;;;;5018835;28;20029;-72
2023/12/19 06:26:30;;;;;;;27.67;25.23;;;36.10;90.90;;;;;;5023016;28;20500;-74
2023/12/19 06:28:57;;;;;;;28.27;25.75;;;36.10;91.00;;;;;;5017235;28;20469;-75
2023/12/19 06:31:24;;;;;;;27.88;25.70;;;36.00;91.10;;;;;;5014952;28;20072;-73
2023/12/19 06:33:51;;;;;;;29.10;26.58;;;35.90;91.30;;;;;;5028829;28;20579;-76
2023/12/19 06:36:31;;;;;;;28.85;26.52;;;35.60;91.80;;;;;;5016663;28;20550;-74
2023/12/19 06:38:59;;;;;;;29.52;26.85;;;35.50;92.10;;;;;;5012497;28;21295;-76
2023/12/19 06:41:27;;;;;;;28.35;26.00;;;35.40;92.40;;;;;;5016614;28;20049;-72
2023/12/19 06:43:54;;;;;;;29.13;26.63;;;35.20;92.20;;;;;;5021081;28;20391;-75
2023/12/19 06:46:21;;;;;;;27.92;25.50;;;35.10;92.40;;;;;;5015929;28;20379;-78
2023/12/19 06:48:48;;;;;;;29.38;26.75;;;34.90;92.40;;;;;;5015873;28;20156;-74
2023/12/19 06:51:28;;;;;;;29.75;27.23;;;34.70;91.40;;;;;;5016065;28;20163;-74
2023/12/19 06:53:57;;;;;;;29.83;27.42;;;34.50;91.60;;;;;;5014568;28;20344;-72
2023/12/19 06:56:28;;;;;;;30.80;28.30;;;34.40;91.70;;;;;;5015986;28;20029;-75
2023/12/19 06:58:55;;;;;;;29.33;26.93;;;34.10;91.90;;;;;;5015454;28;20427;-74
2023/12/19 07:01:23;;;;;;;29.63;27.23;;;33.80;92.10;;;;;;5013904;28;20617;-73
2023/12/19 07:03:50;;;;;;;29.35;26.98;;;33.50;92.60;;;;;;5013968;28;20037;-74
2023/12/19 07:06:18;;;;;;;29.35;26.77;;;33.40;92.40;;;;;;5016841;28;20167;-75
2023/12/19 07:08:45;;;;;;;29.83;27.13;;;33.30;92.50;;;;;;5018305;28;20037;-75
2023/12/19 07:11:12;;;;;;;31.38;28.73;;;33.30;92.60;;;;;;5018102;28;20384;-74
2023/12/19 07:13:39;;;;;;;27.08;24.77;;;33.30;92.90;;;;;;5020033;28;20029;-75
2023/12/19 07:16:07;;;;;;;27.45;25.15;;;33.20;92.90;;;;;;5021027;28;20025;-74
2023/12/19 07:18:34;;;;;;;28.15;25.58;;;33.10;93.10;;;;;;5017947;28;20044;-71
2023/12/19 07:21:01;;;;;;;25.80;23.60;;;33.10;93.30;;;;;;5016342;28;20947;-72
2023/12/19 07:23:28;;;;;;;25.65;23.35;;;32.90;93.20;;;;;;5017586;28;20029;-71
2023/12/19 07:25:56;;;;;;;24.73;22.45;;;32.90;93.40;;;;;;5017676;28;20026;-74
2023/12/19 07:28:23;;;;;;;30.15;27.30;;;32.80;93.20;;;;;;5017497;28;20043;-69
2023/12/19 07:30:51;;;;;;;23.88;21.60;;;32.80;93.40;;;;;;5017182;28;20148;-73
2023/12/19 07:33:18;;;;;;;23.25;21.27;;;32.50;93.30;;;;;;5016598;28;20492;-76
2023/12/19 07:35:45;;;;;;;21.70;19.80;;;32.50;93.50;;;;;;5017325;28;20064;-76
2023/12/19 07:38:12;;;;;;;20.85;19.05;;;32.40;93.70;;;;;;5017873;28;20350;-76
2023/12/19 07:40:39;;;;;;;19.98;18.17;;;32.20;93.60;;;;;;5017490;28;20029;-71
2023/12/19 07:43:07;;;;;;;19.50;17.83;;;32.00;93.90;;;;;;5016112;28;20544;-75
2023/12/19 07:45:34;;;;;;;19.38;17.48;;;32.00;93.90;;;;;;5025912;28;20021;-75
2023/12/19 07:48:01;;;;;;;21.00;19.23;;;31.90;94.00;;;;;;5017229;28;20317;-76
2023/12/19 07:50:28;;;;;;;18.48;16.88;;;31.70;94.30;;;;;;5018364;28;20056;-70
2023/12/19 07:52:55;;;;;;;18.77;16.83;;;31.70;94.60;;;;;;5015101;28;20025;-68
2023/12/19 07:55:22;;;;;;;17.45;16.05;;;31.70;94.50;;;;;;5015774;28;20037;-74
2023/12/19 07:57:49;;;;;;;18.35;16.70;;;31.70;94.40;;;;;;5016968;28;20044;-77
2023/12/19 08:00:17;;;;;;;18.55;16.70;;;31.80;94.40;;;;;;5016705;28;20029;-74
2023/12/19 08:02:45;;;;;;;17.85;16.15;;;32.00;94.10;;;;;;5016601;28;20116;-75
2023/12/19 08:05:12;;;;;;;18.50;16.80;;;32.30;93.50;;;;;;5018312;28;20953;-68
2023/12/19 08:07:39;;;;;;;18.58;16.85;;;32.70;93.10;;;;;;5016873;28;20030;-71
2023/12/19 08:10:07;;;;;;;18.60;16.85;;;33.00;93.50;;;;;;5018152;28;20026;-75
2023/12/19 08:12:34;;;;;;;18.83;17.15;;;33.10;92.80;;;;;;5018902;28;20031;-75
2023/12/19 08:15:01;;;;;;;18.55;16.88;;;33.00;92.50;;;;;;5020867;28;20040;-70
2023/12/19 08:17:29;;;;;;;18.33;16.58;;;32.80;92.80;;;;;;5019583;28;20026;-72
2023/12/19 08:19:56;;;;;;;18.77;17.00;;;32.70;92.70;;;;;;5019995;28;20384;-76
2023/12/19 08:22:23;;;;;;;18.60;16.77;;;32.50;92.90;;;;;;5037942;28;20049;-73
2023/12/19 08:24:51;;;;;;;22.10;19.50;;;32.40;93.00;;;;;;5020377;28;20022;-70
2023/12/19 08:27:22;;;;;;;23.20;20.65;;;32.30;92.80;;;;;;5018600;28;20045;-68
2023/12/19 08:29:50;;;;;;;21.10;18.95;;;32.10;92.80;;;;;;5015813;28;20701;-73
2023/12/19 08:32:17;;;;;;;20.77;18.75;;;32.00;93.00;;;;;;5019500;28;20033;-67
2023/12/19 08:34:44;;;;;;;20.45;18.48;;;31.80;93.00;;;;;;5017593;28;20404;-68
2023/12/19 08:37:11;;;;;;;20.15;18.08;;;31.70;93.10;;;;;;5018308;28;20870;-66
2023/12/19 08:39:38;;;;;;;20.13;18.15;;;31.50;93.00;;;;;;5017975;28;20061;-73
2023/12/19 08:42:05;;;;;;;17.25;15.18;;;31.30;93.10;;;;;;5013977;28;20052;-70
2023/12/19 08:44:33;;;;;;;19.25;17.55;;;31.10;92.80;;;;;;5016506;28;20095;-72
2023/12/19 08:47:00;;;;;;;17.05;15.52;;;31.00;92.90;;;;;;5018048;28;20040;-69
2023/12/19 08:49:27;;;;;;;15.73;14.13;;;30.80;93.00;;;;;;5015535;28;20060;-67
2023/12/19 08:51:54;;;;;;;15.75;14.07;;;30.80;92.90;;;;;;5014089;28;20024;-69
2023/12/19 08:54:21;;;;;;;14.93;13.50;;;30.60;92.60;;;;;;5014608;28;20030;-75
2023/12/19 08:56:48;;;;;;;13.88;12.68;;;30.60;92.70;;;;;;5014427;28;20113;-72
2023/12/19 08:59:15;;;;;;;15.25;13.95;;;30.40;92.70;;;;;;5015536;28;20543;-72
2023/12/19 09:01:42;;;;;;;14.68;13.48;;;30.40;92.70;;;;;;5006858;28;20030;-69
2023/12/19 09:04:10;;;;;;;16.20;14.70;;;30.40;92.90;;;;;;5014417;28;20037;-68
2023/12/19 09:06:37;;;;;;;15.13;13.60;;;30.20;93.00;;;;;;5013211;28;20427;-74
2023/12/19 09:09:04;;;;;;;13.18;11.98;;;30.20;93.20;;;;;;5012526;28;20547;-74
2023/12/19 09:11:33;;;;;;;19.40;17.80;;;30.20;93.20;;;;;;5015058;28;20518;-74
2023/12/19 09:14:01;;;;;;;15.23;13.93;;;30.10;93.50;;;;;;5013176;28;21555;-68
2023/12/19 09:16:28;;;;;;;15.50;14.15;;;30.00;93.80;;;;;;5013038;28;20507;-72
2023/12/19 09:18:55;;;;;;;14.45;13.23;;;30.00;93.70;;;;;;5013381;28;20023;-68
2023/12/19 09:21:23;;;;;;;14.25;12.77;;;30.10;93.90;;;;;;5013708;28;20187;-72
2023/12/19 09:23:50;;;;;;;12.40;11.35;;;30.00;93.80;;;;;;5012022;28;20108;-68
2023/12/19 09:26:17;;;;;;;12.77;11.68;;;30.00;93.90;;;;;;5013367;28;20036;-68
2023/12/19 09:28:44;;;;;;;13.07;11.77;;;30.10;94.00;;;;;;5013675;28;20033;-67
2023/12/19 09:31:12;;;;;;;15.43;13.93;;;30.00;94.10;;;;;;5012380;28;20033;-72
2023/12/19 09:33:40;;;;;;;14.55;13.13;;;30.10;93.70;;;;;;5027397;22;20044;-69
2023/12/19 09:36:10;;;;;;;13.45;12.23;;;30.30;93.60;;;;;;5028067;28;20025;-72
2023/12/19 09:38:38;;;;;;;12.40;11.10;;;30.40;93.20;;;;;;5025348;28;20163;-66
2023/12/19 09:41:05;;;;;;;13.40;10.25;;;30.00;95.60;;;;;;5025415;28;20434;-65
2023/12/19 09:43:33;;;;;;;10.55;8.95;;;29.40;96.90;;;;;;5026316;28;20025;-73
2023/12/19 09:46:04;;;;;;;9.70;8.02;;;28.70;98.40;;;;;;5021732;28;20160;-67
2023/12/19 09:48:37;;;;;;;9.38;6.90;;;28.00;99.20;;;;;;5026566;28;20143;-71
2023/12/19 09:51:05;;;;;;;11.90;5.70;;;27.50;99.90;;;;;;5024121;28;20589;-74
2023/12/19 09:53:34;;;;;;;7.97;6.00;;;27.10;99.90;;;;;;5023348;28;20037;-65
2023/12/19 09:56:02;;;;;;;13.63;5.30;;;26.90;99.90;;;;;;5026750;28;20144;-72
2023/12/19 09:58:30;;;;;;;11.98;5.95;;;26.60;99.90;;;;;;5025762;28;20037;-72
2023/12/19 10:01:00;;;;;;;8.05;4.88;;;26.20;99.90;;;;;;5024463;28;20029;-66
2023/12/19 10:03:28;;;;;;;7.20;4.40;;;26.00;99.90;;;;;;5025537;28;20025;-76
2023/12/19 10:05:56;;;;;;;8.20;5.00;;;25.80;99.90;;;;;;5025685;28;20087;-73
2023/12/19 10:08:23;;;;;;;12.80;4.80;;;25.50;99.90;;;;;;5026642;28;20021;-73
2023/12/19 10:10:57;;;;;;;13.13;5.22;;;25.30;99.90;;;;;;5026792;28;20027;-68
2023/12/19 10:13:32;;;;;;;12.25;5.03;;;25.10;99.90;;;;;;5028763;28;20083;-68
2023/12/19 10:16:04;;;;;;;9.98;5.18;;;24.90;99.90;;;;;;5025678;28;20030;-66
2023/12/19 10:18:31;;;;;;;11.52;5.32;;;24.70;99.90;;;;;;5027277;28;20029;-75
2023/12/19 10:21:10;;;;;;;10.80;5.20;;;24.60;99.90;;;;;;5023480;28;20055;-66
2023/12/19 10:23:46;;;;;;;9.02;4.72;;;24.40;99.90;;;;;;5024970;28;20488;-69
2023/12/19 10:26:13;;;;;;;9.27;5.00;;;24.30;99.90;;;;;;5024092;28;20034;-69
2023/12/19 10:28:42;;;;;;;8.30;4.13;;;24.20;99.90;;;;;;5025659;28;20037;-68
2023/12/19 10:31:14;;;;;;;13.48;5.65;;;24.20;99.90;;;;;;5024688;28;20494;-68
2023/12/19 10:33:43;;;;;;;10.45;5.22;;;24.10;99.90;;;;;;5023911;28;20053;-65
2023/12/19 10:36:34;;;;;;;11.50;5.70;;;23.60;99.90;;;;;;5025327;28;20040;-70
2023/12/19 10:39:07;;;;;;;12.32;5.25;;;22.90;99.90;;;;;;5026069;28;20021;-65
2023/12/19 10:41:37;;;;;;;10.52;5.15;;;22.30;99.90;;;;;;5029599;28;20410;-65
2023/12/19 10:44:05;;;;;;;8.50;5.25;;;22.00;99.90;;;;;;5030819;28;20037;-66
2023/12/19 10:46:33;;;;;;;9.20;5.35;;;21.80;99.90;;;;;;5031239;28;20025;-64
2023/12/19 10:49:05;;;;;;;11.77;5.60;;;21.70;99.90;;;;;;5031817;28;20030;-64
2023/12/19 10:51:35;;;;;;;7.35;4.85;;;21.60;99.90;;;;;;5028613;28;20791;-62
2023/12/19 10:54:25;;;;;;;13.13;5.35;;;21.50;99.90;;;;;;5030623;28;20044;-62
2023/12/19 10:57:17;;;;;;;13.50;4.80;;;21.50;99.90;;;;;;5029533;28;20029;-68
2023/12/19 10:59:55;;;;;;;10.35;5.40;;;21.40;99.90;;;;;;5030247;28;20028;-65
2023/12/19 11:02:43;;;;;;;9.68;4.60;;;21.40;99.90;;;;;;5028119;28;20480;-64
2023/12/19 11:05:46;;;;;;;13.98;5.50;;;21.30;99.90;;;;;;5031253;28;20025;-65
2023/12/19 11:08:15;;;;;;;;;;;21.20;99.90;;;;;;5017423;28;20037;-64
2023/12/19 11:10:59;;;;;;;16.15;7.75;;;21.20;99.90;;;;;;5016922;28;20011;-74
2023/12/19 11:13:26;;;;;;;13.63;6.25;;;21.20;99.90;;;;;;5016778;28;20728;-72
2023/12/19 11:16:19;;;;;;;13.40;5.93;;;21.20;99.90;;;;;;5018369;28;20144;-73
2023/12/19 11:19:08;;;;;;;15.20;6.75;;;21.20;99.90;;;;;;5021886;28;20943;-72
2023/12/19 11:22:13;;;;;;;14.85;5.85;;;21.30;99.90;;;;;;5020826;28;20065;-64
2023/12/19 11:25:09;;;;;;;15.15;5.50;;;21.30;99.90;;;;;;4971646;28;20038;-65
2023/12/19 11:27:54;;;;;;;19.17;5.97;;;21.40;99.90;;;;;;4969979;28;20038;-66
2023/12/19 11:30:38;;;;;;;15.82;5.20;;;21.50;99.90;;;;;;4971887;28;20061;-70
2023/12/19 11:33:07;;;;;;;15.38;6.00;;;21.50;99.90;;;;;;4971961;28;20614;-68
2023/12/19 11:35:35;;;;;;;18.45;5.93;;;21.60;99.90;;;;;;4971620;28;20038;-69
2023/12/19 11:38:29;;;;;;;21.80;7.05;;;21.60;99.90;;;;;;4973875;28;20121;-68
2023/12/19 11:40:57;;;;;;;16.95;6.00;;;21.60;99.90;;;;;;4974154;28;20058;-69
2023/12/19 11:43:31;;;;;;;14.80;6.35;;;21.60;99.90;;;;;;5003163;28;20042;-68
2023/12/19 11:45:59;;;;;;;16.60;6.10;;;21.60;99.90;;;;;;5001576;28;20034;-70
2023/12/19 11:48:39;;;;;;;15.68;5.63;;;21.60;99.90;;;;;;4999918;28;20038;-71
2023/12/19 11:51:08;;;;;;;15.30;6.03;;;21.70;99.90;;;;;;5002542;28;20607;-72
2023/12/19 11:53:40;;;;;;;11.05;5.90;;;21.80;99.90;;;;;;5000888;28;20728;-73
2023/12/19 11:56:11;;;;;;;16.15;6.70;;;21.80;99.90;;;;;;5033997;28;20090;-73
2023/12/19 11:58:52;;;;;;;16.33;5.55;;;21.80;99.90;;;;;;5043382;28;20037;-68
2023/12/19 12:01:22;;;;;;;11.55;5.43;;;21.80;99.90;;;;;;5040892;28;20028;-72
2023/12/19 12:03:50;;;;;;;16.55;6.00;;;21.90;99.90;;;;;;5043726;28;20431;-73
2023/12/19 12:06:20;;;;;;;18.67;6.15;;;21.90;99.90;;;;;;5042722;28;20518;-71
2023/12/19 12:08:58;;;;;;;13.43;6.00;;;21.90;99.90;;;;;;5043531;28;20083;-70
2023/12/19 12:11:26;;;;;;;14.02;6.43;;;21.80;99.90;;;;;;5042493;28;20388;-73
2023/12/19 12:14:04;;;;;;;14.55;5.70;;;21.90;99.90;;;;;;5041531;28;20020;-71
2023/12/19 12:16:41;;;;;;;14.90;5.22;;;21.80;99.90;;;;;;5042413;28;20107;-72
2023/12/19 12:19:11;;;;;;;22.33;7.35;;;21.80;99.90;;;;;;5041299;28;20051;-72
2023/12/19 12:21:49;;;;;;;14.75;6.32;;;21.70;99.90;;;;;;5040069;28;20059;-70
2023/12/19 12:24:21;;;;;;;19.73;6.63;;;21.70;99.90;;;;;;5042011;28;20104;-72
2023/12/19 12:26:50;;;;;;;13.52;5.82;;;21.70;99.90;;;;;;5042299;28;20081;-70
2023/12/19 12:29:19;;;;;;;11.35;5.18;;;21.70;99.90;;;;;;5043582;28;20029;-72
2023/12/19 12:31:50;;;;;;;17.63;5.53;;;21.70;99.90;;;;;;5042363;28;20052;-70
2023/12/19 12:34:17;;;;;;;11.27;5.57;;;21.70;99.90;;;;;;5042038;28;20499;-69
2023/12/19 12:36:49;;;;;;;13.20;5.65;;;21.70;99.90;;;;;;5044053;28;20044;-69
2023/12/19 12:39:22;;;;;;;9.57;4.63;;;21.70;99.90;;;;;;5043910;28;20547;-72
2023/12/19 12:41:49;;;;;;;17.85;6.30;;;21.70;99.90;;;;;;5042203;28;20400;-69